createdAt,value
2023-05-17T00:00:11.996Z,6.40
2023-05-17T00:02:39.979Z,5.57
2023-05-17T00:05:08.767Z,6.32
2023-05-17T00:07:38.050Z,5.15
2023-05-17T00:10:06.738Z,4.97
2023-05-17T00:12:34.780Z,4.95
2023-05-17T00:15:02.718Z,4.78
2023-05-17T00:17:31.093Z,8.30
2023-05-17T00:19:59.094Z,5.60
2023-05-17T00:22:27.786Z,8.57
2023-05-17T00:24:57.136Z,7.80
2023-05-17T00:27:25.128Z,4.15
2023-05-17T00:29:53.164Z,6.20
2023-05-17T00:32:21.163Z,4.65
2023-05-17T00:34:49.202Z,5.18
2023-05-17T00:37:17.176Z,4.28
2023-05-17T00:39:45.136Z,7.40
2023-05-17T00:42:14.512Z,4.35
2023-05-17T00:44:42.843Z,4.50
2023-05-17T00:47:10.861Z,4.80
2023-05-17T00:49:38.849Z,6.00
2023-05-17T00:52:07.383Z,5.88
2023-05-17T00:54:37.476Z,3.40
2023-05-17T00:57:05.872Z,6.45
2023-05-17T00:59:37.433Z,7.65
2023-05-17T01:02:05.859Z,4.32
2023-05-17T01:04:34.619Z,4.50
2023-05-17T01:07:02.587Z,6.13
2023-05-17T01:09:30.658Z,4.68
2023-05-17T01:12:02.821Z,4.97
2023-05-17T01:14:39.372Z,6.35
2023-05-17T01:17:08.421Z,4.28
2023-05-17T01:19:58.184Z,3.72
2023-05-17T01:22:34.224Z,3.70
2023-05-17T01:25:13.153Z,5.20
2023-05-17T01:27:43.908Z,3.95
2023-05-17T01:30:14.240Z,4.10
2023-05-17T01:32:42.430Z,5.53
2023-05-17T01:35:12.158Z,4.88
2023-05-17T01:37:40.162Z,5.43
2023-05-17T01:40:09.250Z,5.10
2023-05-17T01:42:39.961Z,5.03
2023-05-17T01:45:11.840Z,5.88
2023-05-17T01:47:42.688Z,6.07
2023-05-17T01:50:11.044Z,6.32
2023-05-17T01:52:40.022Z,5.05
2023-05-17T01:55:10.932Z,5.32
2023-05-17T01:57:40.778Z,3.55
2023-05-17T02:00:11.707Z,6.40
2023-05-17T02:02:47.415Z,3.78
2023-05-17T02:05:15.566Z,3.83
2023-05-17T02:07:43.599Z,4.82
2023-05-17T02:10:12.157Z,4.07
2023-05-17T02:12:43.907Z,4.82
2023-05-17T02:15:13.795Z,4.97
2023-05-17T02:17:41.927Z,3.72
2023-05-17T02:20:11.695Z,5.63
2023-05-17T02:22:39.605Z,3.30
2023-05-17T02:25:08.936Z,4.55
2023-05-17T02:27:36.921Z,3.50
2023-05-17T02:30:05.381Z,5.55
2023-05-17T02:32:34.825Z,5.68
2023-05-17T02:35:02.873Z,4.05
2023-05-17T02:37:30.974Z,4.43
2023-05-17T02:39:58.914Z,5.13
2023-05-17T02:42:27.427Z,3.83
2023-05-17T02:44:57.979Z,4.40
2023-05-17T02:47:26.187Z,4.43
2023-05-17T02:49:55.653Z,5.57
2023-05-17T02:52:23.596Z,3.30
2023-05-17T02:54:52.484Z,5.10
2023-05-17T02:57:20.699Z,3.97
2023-05-17T02:59:48.894Z,9.23
2023-05-17T03:02:17.175Z,4.43
2023-05-17T03:04:45.515Z,4.65
2023-05-17T03:07:14.899Z,4.82
2023-05-17T03:09:43.970Z,4.82
2023-05-17T03:12:11.994Z,8.48
2023-05-17T03:14:40.588Z,3.50
2023-05-17T03:17:10.293Z,4.93
2023-05-17T03:19:38.694Z,5.35
2023-05-17T03:22:06.709Z,4.63
2023-05-17T03:24:36.752Z,3.80
2023-05-17T03:27:04.979Z,5.18
2023-05-17T03:29:33.540Z,4.57
2023-05-17T03:32:01.624Z,4.35
2023-05-17T03:34:29.752Z,4.00
2023-05-17T03:36:57.816Z,5.15
2023-05-17T03:39:25.900Z,5.15
2023-05-17T03:41:55.204Z,5.85
2023-05-17T03:44:24.250Z,4.65
2023-05-17T03:46:54.080Z,4.57
2023-05-17T03:49:23.651Z,5.18
2023-05-17T03:51:52.353Z,4.53
2023-05-17T03:54:20.967Z,4.13
2023-05-17T03:56:50.272Z,3.63
2023-05-17T03:59:20.686Z,3.90
2023-05-17T04:01:48.763Z,4.93
2023-05-17T04:04:16.800Z,3.70
2023-05-17T04:06:44.833Z,4.13
2023-05-17T04:09:15.436Z,3.63
2023-05-17T04:11:43.675Z,4.35
2023-05-17T04:14:12.642Z,3.42
2023-05-17T04:16:42.065Z,3.95
2023-05-17T04:19:10.913Z,4.35
2023-05-17T04:21:38.933Z,3.97
2023-05-17T04:24:07.904Z,3.78
2023-05-17T04:26:35.935Z,5.25
2023-05-17T04:29:04.241Z,3.55
2023-05-17T04:31:32.813Z,3.22
2023-05-17T04:34:03.216Z,6.30
2023-05-17T04:36:31.579Z,3.30
2023-05-17T04:39:00.492Z,3.72
2023-05-17T04:41:31.346Z,3.40
2023-05-17T04:43:59.999Z,3.53
2023-05-17T04:46:33.627Z,3.78
2023-05-17T04:49:03.298Z,4.18
2023-05-17T04:51:31.999Z,3.33
2023-05-17T04:54:01.069Z,3.22
2023-05-17T04:56:31.153Z,4.47
2023-05-17T04:58:59.235Z,5.97
2023-05-17T05:01:29.305Z,3.97
2023-05-17T05:03:57.821Z,3.65
2023-05-17T05:06:27.353Z,4.85
2023-05-17T05:08:55.633Z,3.88
2023-05-17T05:11:23.709Z,3.70
2023-05-17T05:13:51.712Z,5.05
2023-05-17T05:16:19.772Z,4.65
2023-05-17T05:18:48.085Z,4.90
2023-05-17T05:21:16.249Z,10.38
2023-05-17T05:23:45.716Z,7.72
2023-05-17T05:26:15.173Z,4.38
2023-05-17T05:28:43.206Z,4.13
2023-05-17T05:31:12.325Z,4.15
2023-05-17T05:33:45.764Z,5.22
2023-05-17T05:36:13.925Z,5.97
2023-05-17T05:38:42.260Z,3.75
2023-05-17T05:41:11.552Z,5.25
2023-05-17T05:43:39.805Z,7.00
2023-05-17T05:46:08.967Z,4.72
2023-05-17T05:48:39.548Z,7.70
2023-05-17T05:51:08.157Z,5.55
2023-05-17T05:53:37.755Z,13.18
2023-05-17T05:56:06.122Z,8.60
2023-05-17T05:58:35.600Z,8.00
2023-05-17T06:01:06.484Z,9.75
2023-05-17T06:03:34.622Z,8.75
2023-05-17T06:06:02.706Z,11.57
2023-05-17T06:08:30.770Z,9.60
2023-05-17T06:10:58.764Z,13.57
2023-05-17T06:13:26.700Z,8.10
2023-05-17T06:15:55.993Z,10.63
2023-05-17T06:18:24.090Z,12.65
2023-05-17T06:20:52.207Z,9.27
2023-05-17T06:23:20.166Z,10.13
2023-05-17T06:25:48.116Z,12.82
2023-05-17T06:28:16.174Z,9.93
2023-05-17T06:30:44.213Z,11.77
2023-05-17T06:33:13.686Z,12.00
2023-05-17T06:35:54.684Z,10.57
2023-05-17T06:38:23.955Z,10.00
2023-05-17T06:40:53.807Z,10.52
2023-05-17T06:43:21.800Z,8.95
2023-05-17T06:45:49.722Z,9.68
2023-05-17T06:48:19.142Z,11.98
2023-05-17T06:50:47.155Z,10.07
2023-05-17T06:53:15.135Z,11.30
2023-05-17T06:55:43.278Z,9.98
2023-05-17T06:58:11.596Z,9.15
2023-05-17T07:00:39.522Z,9.77
2023-05-17T07:03:07.602Z,7.82
2023-05-17T07:05:37.134Z,8.00
2023-05-17T07:08:05.848Z,10.10
2023-05-17T07:10:33.761Z,8.85
2023-05-17T07:13:01.752Z,9.77
2023-05-17T07:15:30.017Z,8.18
2023-05-17T07:17:59.306Z,10.18
2023-05-17T07:20:27.466Z,10.20
2023-05-17T07:22:59.364Z,6.43
2023-05-17T07:25:27.591Z,7.18
2023-05-17T07:27:55.782Z,9.05
2023-05-17T07:30:23.815Z,9.48
2023-05-17T07:32:51.876Z,6.43
2023-05-17T07:35:21.682Z,6.75
2023-05-17T07:37:49.903Z,12.52
2023-05-17T07:40:19.652Z,12.35
2023-05-17T07:42:47.602Z,10.23
2023-05-17T07:45:15.665Z,15.73
2023-05-17T07:47:43.703Z,16.55
2023-05-17T07:50:12.729Z,23.23
2023-05-17T07:52:40.710Z,30.88
2023-05-17T07:55:09.530Z,37.20
2023-05-17T07:57:38.816Z,31.40
2023-05-17T08:00:08.834Z,35.10
2023-05-17T08:02:39.976Z,38.88
2023-05-17T08:05:08.540Z,34.33
2023-05-17T08:07:36.730Z,35.67
2023-05-17T08:10:05.380Z,32.70
2023-05-17T08:12:33.388Z,36.38
2023-05-17T08:15:02.693Z,32.03
2023-05-17T08:17:30.663Z,34.10
2023-05-17T08:19:59.231Z,40.42
2023-05-17T08:22:27.519Z,32.22
2023-05-17T08:24:55.523Z,39.22
2023-05-17T08:27:24.475Z,32.50
2023-05-17T08:29:54.801Z,35.83
2023-05-17T08:32:25.352Z,37.38
2023-05-17T08:34:53.338Z,28.17
2023-05-17T08:37:21.356Z,32.65
2023-05-17T08:39:50.169Z,28.15
2023-05-17T08:42:19.075Z,34.50
2023-05-17T08:44:47.270Z,30.42
2023-05-17T08:47:26.282Z,28.58
2023-05-17T08:49:57.705Z,38.30
2023-05-17T08:52:26.029Z,32.13
2023-05-17T08:54:55.718Z,23.63
2023-05-17T08:57:24.348Z,28.70
2023-05-17T08:59:53.442Z,28.38
2023-05-17T09:02:22.035Z,26.70
2023-05-17T09:04:55.787Z,27.83
2023-05-17T09:07:25.632Z,24.90
2023-05-17T09:09:54.202Z,25.30
2023-05-17T09:12:25.411Z,20.92
2023-05-17T09:14:54.788Z,27.95
2023-05-17T09:17:23.002Z,23.85
2023-05-17T09:19:51.873Z,17.23
2023-05-17T09:22:20.046Z,23.65
2023-05-17T09:24:50.311Z,20.10
2023-05-17T09:27:18.846Z,21.92
2023-05-17T09:29:47.648Z,17.65
2023-05-17T09:32:16.329Z,18.70
2023-05-17T09:34:45.724Z,23.83
2023-05-17T09:37:17.391Z,20.05
2023-05-17T09:39:46.412Z,16.15
2023-05-17T09:42:16.753Z,14.60
2023-05-17T09:44:53.162Z,19.30
2023-05-17T09:47:25.320Z,17.27
2023-05-17T09:49:53.591Z,19.42
2023-05-17T09:52:21.878Z,16.40
2023-05-17T09:54:53.928Z,12.80
2023-05-17T09:57:23.325Z,17.20
2023-05-17T09:59:51.348Z,14.70
2023-05-17T10:02:23.523Z,15.88
2023-05-17T10:04:52.242Z,14.77
2023-05-17T10:07:21.468Z,15.13
2023-05-17T10:09:50.340Z,12.57
2023-05-17T10:12:23.811Z,14.25
2023-05-17T10:14:57.060Z,15.00
2023-05-17T10:17:25.347Z,13.70
2023-05-17T10:19:53.473Z,14.38
2023-05-17T10:22:23.791Z,12.52
2023-05-17T10:24:52.256Z,14.38
2023-05-17T10:27:20.898Z,12.95
2023-05-17T10:29:50.464Z,11.40
2023-05-17T10:32:23.059Z,10.77
2023-05-17T10:35:02.095Z,9.20
2023-05-17T10:37:34.515Z,10.05
2023-05-17T10:40:02.520Z,10.50
2023-05-17T10:42:30.467Z,10.43
2023-05-17T10:44:58.414Z,10.32
2023-05-17T10:47:34.459Z,11.38
2023-05-17T10:50:03.593Z,9.40
2023-05-17T10:52:31.501Z,11.10
2023-05-17T10:55:00.056Z,7.45
2023-05-17T10:57:46.821Z,11.48
2023-05-17T11:00:21.550Z,10.02
2023-05-17T11:02:51.443Z,8.65
2023-05-17T11:05:25.820Z,10.45
2023-05-17T11:07:54.178Z,8.57
2023-05-17T11:10:22.748Z,9.48
2023-05-17T11:12:55.349Z,9.70
2023-05-17T11:15:25.354Z,13.10
2023-05-17T11:17:56.260Z,8.70
2023-05-17T11:20:37.110Z,10.85
2023-05-17T11:23:06.226Z,7.68
2023-05-17T11:25:35.874Z,8.43
2023-05-17T11:28:08.524Z,6.97
2023-05-17T11:30:41.192Z,9.38
2023-05-17T11:33:24.843Z,7.90
2023-05-17T11:35:58.659Z,9.45
2023-05-17T11:38:30.320Z,8.43
2023-05-17T11:40:58.691Z,8.68
2023-05-17T11:43:28.582Z,8.98
2023-05-17T11:45:58.223Z,7.50
2023-05-17T11:48:27.768Z,8.93
2023-05-17T11:50:56.667Z,6.72
2023-05-17T11:53:25.564Z,7.38
2023-05-17T11:55:53.716Z,8.25
2023-05-17T11:58:22.326Z,7.38
2023-05-17T12:00:53.895Z,9.40
2023-05-17T12:03:22.520Z,7.18
2023-05-17T12:05:53.230Z,7.20
2023-05-17T12:08:21.567Z,8.05
2023-05-17T12:10:51.735Z,6.28
2023-05-17T12:13:19.811Z,5.35
2023-05-17T12:15:51.458Z,6.57
2023-05-17T12:18:20.818Z,7.18
2023-05-17T12:20:57.350Z,6.88
2023-05-17T12:23:33.107Z,5.95
2023-05-17T12:26:09.678Z,6.72
2023-05-17T12:28:38.419Z,6.03
2023-05-17T12:31:08.802Z,6.07
2023-05-17T12:33:39.956Z,6.10
2023-05-17T12:36:09.946Z,5.32
2023-05-17T12:38:38.434Z,6.85
2023-05-17T12:41:07.134Z,6.78
2023-05-17T12:43:35.298Z,5.90
2023-05-17T12:46:09.980Z,6.82
2023-05-17T12:48:38.353Z,5.65
2023-05-17T12:51:14.690Z,6.57
2023-05-17T12:53:44.376Z,5.70
2023-05-17T12:56:16.452Z,5.75
2023-05-17T12:58:45.127Z,7.35
2023-05-17T13:01:14.554Z,6.68
2023-05-17T13:03:42.801Z,5.38
2023-05-17T13:06:11.206Z,4.68
2023-05-17T13:08:41.773Z,4.38
2023-05-17T13:11:14.220Z,5.30
2023-05-17T13:13:42.252Z,7.22
2023-05-17T13:16:10.288Z,5.10
2023-05-17T13:18:51.140Z,5.28
2023-05-17T13:21:19.983Z,5.57
2023-05-17T13:23:49.839Z,5.10
2023-05-17T13:26:18.008Z,4.85
2023-05-17T13:28:46.032Z,3.92
2023-05-17T13:31:14.105Z,4.03
2023-05-17T13:33:42.129Z,4.57
2023-05-17T13:36:10.460Z,6.88
2023-05-17T13:38:38.406Z,6.68
2023-05-17T13:41:09.259Z,6.13
2023-05-17T13:43:37.405Z,6.15
2023-05-17T13:46:05.377Z,6.75
2023-05-17T13:48:33.427Z,6.20
2023-05-17T13:51:01.990Z,6.70
2023-05-17T13:53:30.053Z,6.85
2023-05-17T13:55:58.052Z,7.13
2023-05-17T13:58:27.410Z,9.13
2023-05-17T14:00:55.390Z,9.65
2023-05-17T14:03:23.462Z,9.43
2023-05-17T14:05:53.003Z,7.75
2023-05-17T14:08:21.118Z,10.25
2023-05-17T14:10:49.609Z,9.75
2023-05-17T14:13:17.510Z,10.52
2023-05-17T14:15:46.752Z,9.68
2023-05-17T14:18:14.921Z,12.30
2023-05-17T14:20:42.991Z,12.70
2023-05-17T14:23:10.926Z,12.10
2023-05-17T14:25:38.883Z,12.10
2023-05-17T14:28:06.868Z,11.48
2023-05-17T14:30:34.834Z,12.90
2023-05-17T14:33:04.206Z,11.68
2023-05-17T14:35:32.267Z,11.02
2023-05-17T14:38:00.231Z,10.90
2023-05-17T14:40:28.671Z,9.75
2023-05-17T14:42:56.896Z,13.90
2023-05-17T14:45:24.824Z,10.25
2023-05-17T14:47:52.892Z,14.70
2023-05-17T14:50:22.491Z,14.05
2023-05-17T14:52:50.670Z,13.18
2023-05-17T14:55:19.330Z,13.32
2023-05-17T14:57:47.328Z,10.88
2023-05-17T15:00:15.784Z,13.27
2023-05-17T15:02:44.019Z,13.63
2023-05-17T15:05:12.496Z,11.55
2023-05-17T15:07:42.338Z,11.82
2023-05-17T15:10:12.899Z,12.30
2023-05-17T15:12:40.852Z,11.00
2023-05-17T15:15:10.314Z,12.65
2023-05-17T15:17:38.254Z,13.48
2023-05-17T15:20:08.518Z,15.38
2023-05-17T15:22:36.615Z,14.98
2023-05-17T15:25:07.374Z,13.93
2023-05-17T15:27:35.392Z,15.38
2023-05-17T15:30:03.500Z,12.70
2023-05-17T15:32:31.651Z,15.27
2023-05-17T15:35:00.168Z,13.30
2023-05-17T15:37:28.214Z,17.05
2023-05-17T15:39:56.193Z,13.80
2023-05-17T15:42:25.587Z,15.20
2023-05-17T15:44:53.543Z,14.82
2023-05-17T15:47:23.890Z,11.65
2023-05-17T15:49:57.778Z,12.38
2023-05-17T15:52:25.726Z,12.75
2023-05-17T15:54:54.109Z,11.98
2023-05-17T15:57:22.096Z,16.25
2023-05-17T15:59:51.454Z,14.90
2023-05-17T16:02:19.652Z,14.55
2023-05-17T16:04:47.628Z,14.48
2023-05-17T16:07:15.731Z,16.50
2023-05-17T16:09:43.748Z,14.88
2023-05-17T16:12:11.745Z,14.60
2023-05-17T16:14:40.731Z,12.93
2023-05-17T16:17:10.163Z,14.73
2023-05-17T16:19:38.254Z,15.50
2023-05-17T16:22:06.492Z,14.20
2023-05-17T16:24:35.191Z,10.10
2023-05-17T16:27:04.710Z,13.25
2023-05-17T16:29:39.828Z,13.27
2023-05-17T16:32:08.616Z,15.75
2023-05-17T16:34:37.925Z,15.40
2023-05-17T16:37:05.976Z,12.13
2023-05-17T16:39:33.990Z,16.35
2023-05-17T16:42:02.478Z,16.38
2023-05-17T16:44:30.459Z,13.55
2023-05-17T16:46:58.541Z,12.65
2023-05-17T16:49:27.160Z,15.35
2023-05-17T16:51:56.921Z,14.10
2023-05-17T16:54:26.444Z,14.23
2023-05-17T16:56:54.413Z,14.07
2023-05-17T16:59:22.437Z,12.18
2023-05-17T17:01:51.633Z,13.55
2023-05-17T17:04:19.625Z,10.40
2023-05-17T17:06:47.783Z,14.25
2023-05-17T17:09:18.556Z,11.50
2023-05-17T17:11:46.843Z,13.20
2023-05-17T17:14:14.997Z,14.52
2023-05-17T17:16:42.943Z,15.70
2023-05-17T17:19:11.779Z,22.80
2023-05-17T17:21:42.249Z,24.08
2023-05-17T17:24:10.450Z,26.58
2023-05-17T17:26:41.381Z,20.75
2023-05-17T17:29:10.346Z,19.58
2023-05-17T17:31:38.416Z,21.77
2023-05-17T17:34:06.377Z,23.60
2023-05-17T17:36:34.381Z,18.27
2023-05-17T17:39:02.422Z,16.38
2023-05-17T17:41:31.283Z,15.98
2023-05-17T17:44:01.649Z,14.63
2023-05-17T17:46:29.928Z,23.05
2023-05-17T17:48:57.935Z,21.77
2023-05-17T17:51:26.158Z,13.65
2023-05-17T17:53:54.108Z,15.35
2023-05-17T17:56:23.816Z,17.77
2023-05-17T17:58:53.607Z,18.02
2023-05-17T18:01:23.632Z,19.23
2023-05-17T18:03:54.363Z,15.05
2023-05-17T18:06:22.468Z,14.27
2023-05-17T18:08:50.600Z,13.25
2023-05-17T18:11:18.662Z,17.98
2023-05-17T18:13:46.623Z,19.20
2023-05-17T18:16:14.701Z,17.20
2023-05-17T18:18:44.328Z,16.88
2023-05-17T18:21:12.677Z,15.98
2023-05-17T18:23:40.795Z,14.55
2023-05-17T18:26:08.884Z,14.50
2023-05-17T18:28:42.363Z,15.30
2023-05-17T18:31:11.343Z,14.02
2023-05-17T18:33:39.345Z,18.13
2023-05-17T18:36:09.146Z,13.25
2023-05-17T18:38:37.097Z,12.35
2023-05-17T18:41:05.095Z,15.07
2023-05-17T18:43:33.076Z,15.80
2023-05-17T18:46:01.159Z,15.57
2023-05-17T18:48:29.194Z,15.38
2023-05-17T18:50:57.526Z,14.05
2023-05-17T18:53:27.043Z,14.80
2023-05-17T18:55:55.009Z,13.10
2023-05-17T18:58:23.124Z,13.18
2023-05-17T19:00:51.113Z,14.77
2023-05-17T19:03:19.184Z,12.07
2023-05-17T19:05:47.142Z,12.52
2023-05-17T19:08:15.127Z,15.05
2023-05-17T19:10:44.777Z,12.55
2023-05-17T19:13:13.707Z,11.88
2023-05-17T19:15:41.914Z,13.98
2023-05-17T19:18:09.913Z,14.27
2023-05-17T19:20:37.975Z,13.07
2023-05-17T19:23:06.769Z,13.32
2023-05-17T19:25:34.858Z,15.57
2023-05-17T19:28:04.253Z,11.85
2023-05-17T19:30:33.164Z,12.18
2023-05-17T19:33:01.506Z,9.75
2023-05-17T19:35:29.808Z,11.98
2023-05-17T19:37:57.906Z,11.95
2023-05-17T19:40:25.893Z,16.65
2023-05-17T19:42:53.864Z,9.88
2023-05-17T19:45:23.407Z,9.07
2023-05-17T19:47:53.319Z,11.27
2023-05-17T19:50:21.705Z,9.15
2023-05-17T19:52:49.841Z,12.95
2023-05-17T19:55:21.999Z,14.10
2023-05-17T19:57:50.171Z,12.45
2023-05-17T20:00:18.730Z,13.60
2023-05-17T20:02:48.243Z,19.20
2023-05-17T20:05:17.049Z,12.15
2023-05-17T20:07:45.022Z,11.77
2023-05-17T20:10:13.148Z,13.70
2023-05-17T20:12:41.875Z,15.40
2023-05-17T20:15:11.216Z,14.48
2023-05-17T20:17:39.262Z,10.65
2023-05-17T20:20:09.993Z,18.92
2023-05-17T20:22:39.869Z,14.95
2023-05-17T20:25:08.170Z,11.77
2023-05-17T20:27:36.189Z,13.02
2023-05-17T20:30:05.480Z,11.10
2023-05-17T20:32:33.612Z,9.98
2023-05-17T20:35:01.713Z,10.88
2023-05-17T20:37:31.086Z,13.93
2023-05-17T20:40:00.044Z,10.40
2023-05-17T20:42:29.012Z,11.77
2023-05-17T20:44:57.764Z,12.00
2023-05-17T20:47:26.036Z,9.82
2023-05-17T20:49:54.001Z,15.95
2023-05-17T20:52:38.113Z,10.38
2023-05-17T20:55:09.771Z,11.77
2023-05-17T20:57:37.865Z,13.48
2023-05-17T21:00:08.040Z,15.02
2023-05-17T21:02:36.149Z,14.40
2023-05-17T21:05:04.829Z,18.50
2023-05-17T21:07:32.852Z,10.18
2023-05-17T21:10:00.843Z,11.70
2023-05-17T21:12:30.165Z,12.10
2023-05-17T21:15:14.458Z,9.82
2023-05-17T21:17:43.588Z,10.82
2023-05-17T21:20:12.799Z,10.90
2023-05-17T21:22:40.777Z,14.32
2023-05-17T21:25:09.382Z,10.93
2023-05-17T21:27:38.927Z,14.88
2023-05-17T21:30:08.165Z,9.88
2023-05-17T21:32:36.264Z,8.27
2023-05-17T21:35:04.440Z,17.23
2023-05-17T21:37:32.608Z,11.35
2023-05-17T21:40:00.623Z,12.38
2023-05-17T21:42:28.641Z,12.98
2023-05-17T21:44:57.947Z,9.43
2023-05-17T21:47:26.345Z,8.02
2023-05-17T21:49:54.327Z,9.38
2023-05-17T21:52:22.248Z,11.25
2023-05-17T21:54:50.203Z,8.52
2023-05-17T21:57:20.776Z,10.65
2023-05-17T21:59:48.884Z,9.68
2023-05-17T22:02:18.393Z,11.55
2023-05-17T22:04:46.903Z,8.27
2023-05-17T22:07:14.906Z,12.25
2023-05-17T22:09:45.474Z,9.52
2023-05-17T22:12:13.648Z,8.68
2023-05-17T22:14:44.359Z,11.60
2023-05-17T22:17:12.384Z,8.43
2023-05-17T22:19:41.786Z,10.85
2023-05-17T22:22:09.796Z,10.27
2023-05-17T22:24:37.735Z,11.00
2023-05-17T22:27:06.112Z,9.57
2023-05-17T22:29:34.282Z,8.30
2023-05-17T22:32:02.292Z,8.10
2023-05-17T22:34:30.420Z,12.05
2023-05-17T22:36:59.865Z,8.30
2023-05-17T22:39:27.811Z,9.45
2023-05-17T22:41:55.888Z,6.85
2023-05-17T22:44:23.889Z,8.20
2023-05-17T22:46:51.942Z,8.40
2023-05-17T22:49:20.230Z,7.32
2023-05-17T22:51:48.297Z,9.18
2023-05-17T22:54:17.594Z,9.18
2023-05-17T22:56:45.582Z,6.95
2023-05-17T22:59:13.512Z,7.68
2023-05-17T23:01:41.637Z,7.97
2023-05-17T23:04:09.669Z,7.18
2023-05-17T23:06:38.150Z,6.68
2023-05-17T23:09:06.168Z,8.18
2023-05-17T23:11:35.739Z,8.70
2023-05-17T23:14:03.789Z,7.47
2023-05-17T23:16:31.812Z,8.43
2023-05-17T23:19:00.171Z,7.38
2023-05-17T23:21:28.201Z,8.13
2023-05-17T23:23:56.338Z,8.25
2023-05-17T23:26:24.338Z,8.77
2023-05-17T23:28:53.705Z,7.75
2023-05-17T23:31:22.210Z,7.38
2023-05-17T23:33:50.243Z,7.70
2023-05-17T23:36:18.257Z,8.30
2023-05-17T23:38:46.320Z,7.53
2023-05-17T23:41:17.953Z,6.60
2023-05-17T23:43:46.814Z,6.78
2023-05-17T23:46:19.945Z,6.63
2023-05-17T23:48:50.668Z,6.97
2023-05-17T23:51:21.890Z,7.45
2023-05-17T23:53:50.001Z,8.45
2023-05-17T23:56:18.163Z,7.30
2023-05-17T23:58:46.287Z,7.68
